Flight Track Log - Related Links

Times and Time Zones

All times are in EDT time to prevent confusion due to time zone crossing. See the ASQ4209 flight status page for this flight to view local times or setup timezone preferences in your user account.

Time Position Orientation Groundspeed Altitude Reporting Facility
EDT Latitude Longitude Course Direction KTS MPH feet Rate Location/Type
Tue 08:09:08 PM 40.7000 -74.1500 46° Northeast 167 192 1,000  Level New York TRACON
Tue 08:10:08 PM 40.7500 -74.1000 37° Northeast 218 251 2,500 1,950 Climbing New York TRACON
Tue 08:11:08 PM 40.8000 -74.0667 27° Northeast 256 295 4,900 2,368 Climbing New York TRACON
Tue 08:12:02 PM 40.8167 -73.9667 78° East 263 303 7,000 1,849 Climbing New York TRACON
Tue 08:13:47 PM 40.8456 -73.8175 76° East 285 328 9,800 1,345 Climbing Boston Center
Tue 08:14:00 PM 41.1379 -73.4837 46° Northeast  Level FlightAware Approximate
Tue 08:14:47 PM 40.9008 -73.7333 49° Northeast 279 321 10,700  Level Boston Center
Tue 08:15:47 PM 40.9644 -73.6358 49° Northeast 312 359 11,700 1,150 Climbing Boston Center
Tue 08:16:47 PM 41.0300 -73.5325 50° Northeast 355 409 13,000 1,300 Climbing Boston Center
Tue 08:17:47 PM 41.1019 -73.4208 49° Northeast 360 414 14,300 1,100 Climbing Boston Center
Tue 08:18:47 PM 41.1631 -73.3222 51° Northeast 366 421 15,200 1,100 Climbing Boston Center
Tue 08:19:47 PM 41.2328 -73.2158 49° Northeast 371 427 16,500 1,300 Climbing Boston Center
Tue 08:20:47 PM 41.3064 -73.0978 50° Northeast 376 433 17,800 1,050 Climbing Boston Center
Tue 08:21:47 PM 41.3653 -72.9989 52° Northeast 376 433 18,600 850 Climbing Boston Center
Tue 08:22:47 PM 41.4367 -72.8831 51° Northeast 381 438 19,500 950 Climbing Boston Center
Tue 08:23:47 PM 41.5058 -72.7700 51° Northeast 387 445 20,500 1,050 Climbing Boston Center
Tue 08:24:47 PM 41.5769 -72.6567 50° Northeast 392 451 21,600 1,050 Climbing Boston Center
Tue 08:25:47 PM 41.6458 -72.5344 53° Northeast 397 457 22,600 1,000 Climbing Boston Center
Tue 08:26:47 PM 41.7044 -72.4039 59° Northeast 402 463 23,600 1,000 Climbing Boston Center
Tue 08:27:47 PM 41.7667 -72.2675 59° Northeast 412 474 24,600 700 Climbing Boston Center
Tue 08:28:47 PM 41.8414 -72.1531 49° Northeast 412 474 25,000 200 Climbing Boston Center
Tue 08:29:47 PM 41.9350 -72.0578 37° Northeast 403 464 25,000  Level Boston Center
Tue 08:30:47 PM 42.0306 -71.9594 37° Northeast 415 478 25,000  Level Boston Center
Tue 08:31:47 PM 42.1300 -71.8550 38° Northeast 439 505 25,000  Level Boston Center
Tue 08:32:47 PM 42.2294 -71.7531 37° Northeast 450 518 25,000  Level Boston Center
Tue 08:33:47 PM 42.3289 -71.6481 38° Northeast 450 518 25,000  Level Boston Center
Tue 08:34:47 PM 42.4469 -71.5342 35° Northeast 450 518 25,000  Level Boston Center
Tue 08:35:47 PM 42.5439 -71.4283 39° Northeast 457 526 25,000  Level Boston Center
Tue 08:36:47 PM 42.6450 -71.3225 38° Northeast 456 525 25,000  Level Boston Center
Tue 08:37:47 PM 42.7461 -71.2131 38° Northeast 456 525 25,000  Level Boston Center
Tue 08:38:47 PM 42.8469 -71.1064 38° Northeast 456 525 25,000  Level Boston Center
Tue 08:39:47 PM 42.9497 -70.9964 38° Northeast 456 525 25,000  Level Boston Center
Tue 08:40:47 PM 43.0483 -70.8889 39° Northeast 456 525 25,000  Level Boston Center
Tue 08:41:47 PM 43.1347 -70.7928 39° Northeast 456 525 25,000  Level Boston Center
Tue 08:42:47 PM 43.2311 -70.6875 38° Northeast 456 525 25,000  Level Boston Center
Tue 08:44:11 PM 43.3497 -70.5586 38° Northeast 451 519 25,000  Level Boston Center
Tue 08:45:11 PM 43.4644 -70.4347 38° Northeast 446 513 25,000  Level Boston Center
Tue 08:46:11 PM 43.5606 -70.3256 39° Northeast 446 513 25,000  Level Boston Center
Tue 08:47:11 PM 43.6564 -70.2189 39° Northeast 441 507 25,000  Level Boston Center
Tue 08:48:11 PM 43.7606 -70.1086 37° Northeast 436 502 25,000  Level Boston Center
Tue 08:49:11 PM 43.8458 -70.0103 40° Northeast 443 510 25,000  Level Boston Center
Tue 08:50:23 PM 43.9417 -69.9028 39° Northeast 443 510 25,000  Level Boston Center
Tue 08:51:35 PM 44.0594 -69.7733 38° Northeast 443 510 25,000  Level Boston Center
Tue 08:52:35 PM 44.1772 -69.6408 39° Northeast 448 516 25,000  Level Boston Center
Tue 08:53:35 PM 44.2767 -69.5289 39° Northeast 448 516 25,000  Level Boston Center
Tue 08:54:35 PM 44.3758 -69.4133 40° Northeast 454 522 25,000  Level Boston Center
Tue 08:55:35 PM 44.4769 -69.2978 39° Northeast 459 528 25,000  Level Boston Center
Tue 08:56:35 PM 44.5800 -69.1814 39° Northeast 459 528 25,000  Level Boston Center
Tue 08:57:35 PM 44.6828 -69.0619 40° Northeast 465 535 25,000  Level Boston Center
Tue 08:58:35 PM 44.7856 -68.9417 40° Northeast 465 535 25,000  Level Boston Center
Tue 08:59:35 PM 44.8469 -68.7711 63° Northeast 465 535 25,000  Level Boston Center
Tue 09:00:35 PM 44.8528 -68.5717 88° East 468 539 25,000  Level Boston Center
Tue 09:01:35 PM 44.8606 -68.3747 87° East 484 557 25,000  Level Boston Center
Tue 09:02:35 PM 44.8678 -68.1692 87° East 506 582 25,000  Level Boston Center
Tue 09:03:35 PM 44.8722 -67.9519 88° East 513 590 25,000  Level Boston Center
Tue 09:04:35 PM 44.8808 -67.7492 86° East 513 590 25,000  Level Boston Center
Tue 09:05:47 PM 44.8847 -67.5464 88° East 518 596 25,000  Level Boston Center
Tue 09:06:09 PM 44.8833 -67.4167 91° East 510 587 25,000  Level Moncton Center
Tue 09:06:47 PM 44.8931 -67.3053 83° East 518 596 25,000  Level Boston Center
Tue 09:07:47 PM 44.8956 -67.1261 89° East 518 596 25,000  Level Boston Center
Tue 09:08:09 PM 44.8833 -67.0167 99° East 510 587 25,000  Level Moncton Center
Tue 09:09:09 PM 44.8833 -66.8333 90° East 510 587 25,000  Level Moncton Center
Tue 09:10:09 PM 44.8833 -66.6167 90° East 510 587 25,000  Level Moncton Center
Tue 09:11:09 PM 44.9000 -66.4333 83° East 510 587 25,000  Level Moncton Center
Tue 09:12:09 PM 44.8833 -66.2167 96° East 510 587 25,000  Level Moncton Center
Tue 09:13:09 PM 44.9000 -66.0333 83° East 510 587 25,000  Level Moncton Center
Tue 09:14:09 PM 44.9000 -65.8167 90° East 510 587 25,000  Level Moncton Center
Tue 09:15:09 PM 44.9000 -65.6000 90° East 510 587 25,000  Level Moncton Center
Tue 09:16:09 PM 44.9000 -65.4167 90° East 510 587 25,000  Level Moncton Center
Tue 09:17:09 PM 44.9000 -65.2000 90° East 500 575 25,000  Level Moncton Center
Tue 09:18:09 PM 44.9000 -65.0167 90° East 500 575 25,000  Level Moncton Center
Tue 09:19:09 PM 44.9000 -64.8167 90° East 500 575 25,000 -1,050 Level Moncton Center
Tue 09:20:09 PM 44.9000 -64.6333 90° East 500 575 22,900 -2,300 Descending Moncton Center
Tue 09:21:09 PM 44.9000 -64.4500 90° East 470 541 20,400 -2,600 Descending Moncton Center
Tue 09:22:09 PM 44.8667 -64.2833 106° East 440 506 17,700 -2,400 Descending Moncton Center
Tue 09:23:09 PM 44.8333 -64.1167 106° East 430 495 15,600 -2,200 Descending Moncton Center
Tue 09:24:09 PM 44.8000 -63.9500 106° East 400 460 13,300 -2,100 Descending Moncton Center
Tue 09:25:09 PM 44.7833 -63.8000 99° East 370 426 11,400 -1,950 Descending Moncton Center
Tue 09:26:09 PM 44.7667 -63.6833 101° East 320 368 9,400 -1,750 Descending Moncton Center
Tue 09:27:09 PM 44.7500 -63.5667 101° East 300 345 7,900 -1,400 Descending Moncton Center
Tue 09:28:09 PM 44.7167 -63.4833 119° Southeast 270 311 6,600 -1,350 Descending Moncton Center
Tue 09:29:09 PM 44.7167 -63.3833 90° East 250 288 5,200 -1,300 Descending Moncton Center
Tue 09:30:09 PM 44.7500 -63.3167 55° Northeast 210 242 4,000 -1,100 Descending Moncton Center
Tue 09:31:09 PM 44.8000 -63.3333 347° North 180 207 3,000 -1,000 Descending Moncton Center
Tue 09:32:09 PM 44.8167 -63.3833 295° West 170 196 2,000 -850 Descending Moncton Center
Tue 09:33:09 PM 44.8500 -63.4333 313° West 120 138 1,300 -650 Descending Moncton Center
Tue 09:34:09 PM 44.8667 -63.4833 295° West 110 127 700 -600 Descending Moncton Center

Login

Don't have an account? Register now (free) for customized features, flight alerts, and more!